createdAt,value
2019-01-12T00:00:15.059Z,7.40
2019-01-12T00:02:43.894Z,7.40
2019-01-12T00:05:12.617Z,7.40
2019-01-12T00:07:41.446Z,7.30
2019-01-12T00:10:10.233Z,7.30
2019-01-12T00:12:39.011Z,7.30
2019-01-12T00:15:07.954Z,7.30
2019-01-12T00:17:36.804Z,7.30
2019-01-12T00:20:07.410Z,7.30
2019-01-12T00:22:36.126Z,7.30
2019-01-12T00:25:06.992Z,7.30
2019-01-12T00:27:35.709Z,7.30
2019-01-12T00:30:10.668Z,7.30
2019-01-12T00:32:39.436Z,7.30
2019-01-12T00:35:08.307Z,7.30
2019-01-12T00:37:37.009Z,7.30
2019-01-12T00:40:08.373Z,7.20
2019-01-12T00:42:37.141Z,7.30
2019-01-12T00:45:08.976Z,7.20
2019-01-12T00:47:37.692Z,7.20
2019-01-12T00:50:10.019Z,7.20
2019-01-12T00:52:38.803Z,7.10
2019-01-12T00:55:07.859Z,7.10
2019-01-12T00:57:36.639Z,7.10
2019-01-12T01:00:08.741Z,7.20
2019-01-12T01:02:37.531Z,7.10
2019-01-12T01:05:07.174Z,7.10
2019-01-12T01:07:36.025Z,7.10
2019-01-12T01:10:10.551Z,7.10
2019-01-12T01:12:39.317Z,7.10
2019-01-12T01:15:09.993Z,7.10
2019-01-12T01:17:38.894Z,7.10
2019-01-12T01:20:10.144Z,7.00
2019-01-12T01:22:38.933Z,7.10
2019-01-12T01:25:09.493Z,7.10
2019-01-12T01:27:38.633Z,7.00
2019-01-12T01:30:15.791Z,7.00
2019-01-12T01:32:44.606Z,7.00
2019-01-12T01:35:13.521Z,7.00
2019-01-12T01:37:42.231Z,7.10
2019-01-12T01:40:16.131Z,7.10
2019-01-12T01:42:44.997Z,7.10
2019-01-12T01:45:15.534Z,7.10
2019-01-12T01:47:44.386Z,7.10
2019-01-12T01:50:14.318Z,7.10
2019-01-12T01:52:43.166Z,7.10
2019-01-12T01:55:12.424Z,7.10
2019-01-12T01:57:41.305Z,7.10
2019-01-12T02:00:15.303Z,7.10
2019-01-12T02:02:44.173Z,7.10
2019-01-12T02:05:13.142Z,7.10
2019-01-12T02:07:41.907Z,7.10
2019-01-12T02:10:16.094Z,7.10
2019-01-12T02:12:44.880Z,7.10
2019-01-12T02:15:15.641Z,7.10
2019-01-12T02:17:44.354Z,7.10
2019-01-12T02:20:14.012Z,7.10
2019-01-12T02:22:42.702Z,7.10
2019-01-12T02:25:11.853Z,7.10
2019-01-12T02:27:40.622Z,7.20
2019-01-12T02:30:20.771Z,7.10
2019-01-12T02:32:49.453Z,7.10
2019-01-12T02:35:18.172Z,7.10
2019-01-12T02:37:46.897Z,7.10
2019-01-12T02:40:15.685Z,7.10
2019-01-12T02:42:44.391Z,7.10
2019-01-12T02:45:13.621Z,7.10
2019-01-12T02:47:42.457Z,7.10
2019-01-12T02:50:12.608Z,7.10
2019-01-12T02:52:41.314Z,7.10
2019-01-12T02:55:10.330Z,7.10
2019-01-12T02:57:39.105Z,7.10
2019-01-12T03:00:13.573Z,7.00
2019-01-12T03:02:42.425Z,7.10
2019-01-12T03:05:11.256Z,7.10
2019-01-12T03:07:39.982Z,7.00
2019-01-12T03:10:11.316Z,7.00
2019-01-12T03:12:40.040Z,7.00
2019-01-12T03:15:11.787Z,7.00
2019-01-12T03:17:40.641Z,7.00
2019-01-12T03:20:12.295Z,7.00
2019-01-12T03:22:41.011Z,7.00
2019-01-12T03:25:17.164Z,6.90
2019-01-12T03:27:40.412Z,7.00
2019-01-12T03:30:14.219Z,7.00
2019-01-12T03:32:43.060Z,7.00
2019-01-12T03:35:11.910Z,7.00
2019-01-12T03:37:40.698Z,7.00
2019-01-12T03:40:12.472Z,7.00
2019-01-12T03:42:41.252Z,7.00
2019-01-12T03:45:12.599Z,7.00
2019-01-12T03:47:41.370Z,7.00
2019-01-12T03:50:12.108Z,7.00
2019-01-12T03:52:40.917Z,7.00
2019-01-12T03:55:09.848Z,6.90
2019-01-12T03:57:38.645Z,6.90
2019-01-12T04:00:18.688Z,6.90
2019-01-12T04:02:47.543Z,6.90
2019-01-12T04:05:16.378Z,6.90
2019-01-12T04:07:45.254Z,6.90
2019-01-12T04:10:15.048Z,6.90
2019-01-12T04:12:43.853Z,6.90
2019-01-12T04:15:13.416Z,6.90
2019-01-12T04:17:42.181Z,6.90
2019-01-12T04:20:13.984Z,6.90
2019-01-12T04:22:42.662Z,6.90
2019-01-12T04:25:11.738Z,6.90
2019-01-12T04:27:40.496Z,6.90
2019-01-12T04:30:12.167Z,7.00
2019-01-12T04:32:40.938Z,6.90
2019-01-12T04:35:09.811Z,6.90
2019-01-12T04:37:38.633Z,6.90
2019-01-12T04:40:12.755Z,6.90
2019-01-12T04:42:41.585Z,6.90
2019-01-12T04:45:11.138Z,6.80
2019-01-12T04:47:39.965Z,6.80
2019-01-12T04:50:11.781Z,6.80
2019-01-12T04:52:40.573Z,6.80
2019-01-12T04:55:09.526Z,6.80
2019-01-12T04:57:38.209Z,6.80
2019-01-12T05:00:10.150Z,6.80
2019-01-12T05:02:38.902Z,6.80
2019-01-12T05:05:07.784Z,6.70
2019-01-12T05:07:36.474Z,6.80
2019-01-12T05:10:08.219Z,6.80
2019-01-12T05:12:37.010Z,6.80
2019-01-12T05:15:08.238Z,6.70
2019-01-12T05:17:36.966Z,6.80
2019-01-12T05:20:08.758Z,6.80
2019-01-12T05:22:37.546Z,6.80
2019-01-12T05:25:06.470Z,6.80
2019-01-12T05:27:35.186Z,6.80
2019-01-12T05:30:09.773Z,6.80
2019-01-12T05:32:38.621Z,6.80
2019-01-12T05:35:07.389Z,6.80
2019-01-12T05:37:36.191Z,6.80
2019-01-12T05:40:07.715Z,6.80
2019-01-12T05:42:36.878Z,6.80
2019-01-12T05:45:08.478Z,6.80
2019-01-12T05:47:37.237Z,6.80
2019-01-12T05:50:08.566Z,6.80
2019-01-12T05:52:37.277Z,6.80
2019-01-12T05:55:07.302Z,6.70
2019-01-12T05:57:36.013Z,6.80
2019-01-12T06:00:11.135Z,6.80
2019-01-12T06:02:39.857Z,6.70
2019-01-12T06:05:09.452Z,6.70
2019-01-12T06:07:38.280Z,6.70
2019-01-12T06:10:09.939Z,6.80
2019-01-12T06:12:39.163Z,6.80
2019-01-12T06:15:10.229Z,6.80
2019-01-12T06:17:39.163Z,6.80
2019-01-12T06:20:10.846Z,6.80
2019-01-12T06:22:39.702Z,6.80
2019-01-12T06:25:08.544Z,6.80
2019-01-12T06:27:37.475Z,6.80
2019-01-12T06:30:15.083Z,6.80
2019-01-12T06:32:44.001Z,6.80
2019-01-12T06:35:13.509Z,6.80
2019-01-12T06:37:42.670Z,6.90
2019-01-12T06:40:14.178Z,6.90
2019-01-12T06:42:43.055Z,6.80
2019-01-12T06:45:14.677Z,6.80
2019-01-12T06:47:43.721Z,6.80
2019-01-12T06:50:14.961Z,6.80
2019-01-12T06:52:43.847Z,6.90
2019-01-12T06:55:12.859Z,6.80
2019-01-12T06:57:41.871Z,6.80
2019-01-12T07:00:13.892Z,6.90
2019-01-12T07:02:42.641Z,6.90
2019-01-12T07:05:11.879Z,6.80
2019-01-12T07:07:41.210Z,6.80
2019-01-12T07:10:11.968Z,6.80
2019-01-12T07:12:40.773Z,6.80
2019-01-12T07:15:11.630Z,6.80
2019-01-12T07:17:40.390Z,6.80
2019-01-12T07:20:14.123Z,6.80
2019-01-12T07:22:43.256Z,6.80
2019-01-12T07:25:12.127Z,6.80
2019-01-12T07:27:41.151Z,6.80
2019-01-12T07:30:14.427Z,6.80
2019-01-12T07:32:43.335Z,6.80
2019-01-12T07:35:12.018Z,6.80
2019-01-12T07:37:40.769Z,6.80
2019-01-12T07:40:09.777Z,6.80
2019-01-12T07:42:38.549Z,6.80
2019-01-12T07:45:08.942Z,6.80
2019-01-12T07:47:37.750Z,6.80
2019-01-12T07:50:09.456Z,6.70
2019-01-12T07:52:40.330Z,6.70
2019-01-12T07:55:09.305Z,6.80
2019-01-12T07:57:38.050Z,6.80
2019-01-12T08:00:12.442Z,6.80
2019-01-12T08:02:41.335Z,6.80
2019-01-12T08:05:10.746Z,6.80
2019-01-12T08:07:39.546Z,6.80
2019-01-12T08:10:17.071Z,6.70
2019-01-12T08:12:45.949Z,6.70
2019-01-12T08:15:15.284Z,6.80
2019-01-12T08:17:44.158Z,6.80
2019-01-12T08:20:13.001Z,6.80
2019-01-12T08:22:41.722Z,6.80
2019-01-12T08:25:10.957Z,6.80
2019-01-12T08:27:39.703Z,6.80
2019-01-12T08:30:11.554Z,6.80
2019-01-12T08:32:40.357Z,6.90
2019-01-12T08:35:09.314Z,6.90
2019-01-12T08:37:38.728Z,6.90
2019-01-12T08:40:09.930Z,6.90
2019-01-12T08:42:38.659Z,6.90
2019-01-12T08:45:09.298Z,6.90
2019-01-12T08:47:38.133Z,7.00
2019-01-12T08:50:12.657Z,6.90
2019-01-12T08:52:41.493Z,6.90
2019-01-12T08:55:10.646Z,7.00
2019-01-12T08:57:39.358Z,7.00
2019-01-12T09:00:14.441Z,7.00
2019-01-12T09:02:43.177Z,7.00
2019-01-12T09:05:12.112Z,7.00
2019-01-12T09:07:41.131Z,7.10
2019-01-12T09:10:13.123Z,7.00
2019-01-12T09:12:41.979Z,7.10
2019-01-12T09:15:10.958Z,7.10
2019-01-12T09:17:39.725Z,7.10
2019-01-12T09:20:10.966Z,7.10
2019-01-12T09:22:39.764Z,7.20
2019-01-12T09:25:09.005Z,7.20
2019-01-12T09:27:38.695Z,7.20
2019-01-12T09:30:18.809Z,7.20
2019-01-12T09:32:47.943Z,7.20
2019-01-12T09:35:17.335Z,7.20
2019-01-12T09:37:46.289Z,7.30
2019-01-12T09:40:16.544Z,7.30
2019-01-12T09:42:46.043Z,7.40
2019-01-12T09:45:16.984Z,7.40
2019-01-12T09:47:46.147Z,7.40
2019-01-12T09:50:17.734Z,7.40
2019-01-12T09:52:46.587Z,7.40
2019-01-12T09:55:15.531Z,7.30
2019-01-12T09:57:44.330Z,7.30
2019-01-12T10:00:16.447Z,7.30
2019-01-12T10:02:45.258Z,7.30
2019-01-12T10:05:14.098Z,7.30
2019-01-12T10:07:43.173Z,7.30
2019-01-12T10:10:14.651Z,7.30
2019-01-12T10:12:43.626Z,7.30
2019-01-12T10:15:12.880Z,7.30
2019-01-12T10:17:41.621Z,7.30
2019-01-12T10:20:15.722Z,7.30
2019-01-12T10:22:44.723Z,7.30
2019-01-12T10:25:14.729Z,7.30
2019-01-12T10:27:43.765Z,7.30
2019-01-12T10:30:15.520Z,7.30
2019-01-12T10:32:44.361Z,7.30
2019-01-12T10:35:13.266Z,7.30
2019-01-12T10:37:42.106Z,7.30
2019-01-12T10:40:13.753Z,7.30
2019-01-12T10:42:42.653Z,7.30
2019-01-12T10:45:13.896Z,7.40
2019-01-12T10:47:43.404Z,7.40
2019-01-12T10:50:16.572Z,7.50
2019-01-12T10:52:45.767Z,7.50
2019-01-12T10:55:17.596Z,7.50
2019-01-12T10:57:47.616Z,7.60
2019-01-12T11:00:24.868Z,7.60
2019-01-12T11:02:53.920Z,7.70
2019-01-12T11:05:22.763Z,7.70
2019-01-12T11:07:51.698Z,7.60
2019-01-12T11:10:20.577Z,7.60
2019-01-12T11:12:49.513Z,7.50
2019-01-12T11:15:20.263Z,7.40
2019-01-12T11:17:49.362Z,7.30
2019-01-12T11:20:18.259Z,7.30
2019-01-12T11:22:47.416Z,7.30
2019-01-12T11:25:16.548Z,7.30
2019-01-12T11:27:45.433Z,7.20
2019-01-12T11:30:18.647Z,7.20
2019-01-12T11:32:48.327Z,7.30
2019-01-12T11:35:17.955Z,7.30
2019-01-12T11:37:47.745Z,7.30
2019-01-12T11:40:18.004Z,7.30
2019-01-12T11:42:47.368Z,7.30
2019-01-12T11:45:16.349Z,7.40
2019-01-12T11:47:45.461Z,7.40
2019-01-12T11:50:16.055Z,7.30
2019-01-12T11:52:45.641Z,7.30
2019-01-12T11:55:16.299Z,7.40
2019-01-12T11:57:45.266Z,7.40
2019-01-12T12:00:20.006Z,7.40
2019-01-12T12:02:48.890Z,7.50
2019-01-12T12:05:17.801Z,7.50
2019-01-12T12:07:49.133Z,7.50
2019-01-12T12:10:18.181Z,7.50
2019-01-12T12:12:47.195Z,7.40
2019-01-12T12:15:18.614Z,7.50
2019-01-12T12:17:47.570Z,7.50
2019-01-12T12:20:21.472Z,7.50
2019-01-12T12:22:50.373Z,7.50
2019-01-12T12:25:19.455Z,7.50
2019-01-12T12:27:48.679Z,7.40
2019-01-12T12:30:19.814Z,7.40
2019-01-12T12:32:48.625Z,7.40
2019-01-12T12:35:17.559Z,7.40
2019-01-12T12:37:46.446Z,7.40
2019-01-12T12:40:17.877Z,7.40
2019-01-12T12:42:46.729Z,7.40
2019-01-12T12:45:24.527Z,7.30
2019-01-12T12:47:53.506Z,7.30
2019-01-12T12:50:22.445Z,7.30
2019-01-12T12:52:51.138Z,7.40
2019-01-12T12:55:20.041Z,7.40
2019-01-12T12:57:48.906Z,7.40
2019-01-12T13:00:20.766Z,7.40
2019-01-12T13:02:49.689Z,7.40
2019-01-12T13:05:18.677Z,7.40
2019-01-12T13:07:47.614Z,7.40
2019-01-12T13:10:21.813Z,7.40
2019-01-12T13:12:50.796Z,7.40
2019-01-12T13:15:19.648Z,7.40
2019-01-12T13:17:48.446Z,7.40
2019-01-12T13:20:18.742Z,7.40
2019-01-12T13:22:51.240Z,7.40
2019-01-12T13:25:20.215Z,7.40
2019-01-12T13:27:49.162Z,7.40
2019-01-12T13:30:21.550Z,7.40
2019-01-12T13:32:50.470Z,7.40
2019-01-12T13:35:19.474Z,7.40
2019-01-12T13:37:48.778Z,7.40
2019-01-12T13:40:21.725Z,7.40
2019-01-12T13:42:50.794Z,7.40
2019-01-12T13:45:20.543Z,7.40
2019-01-12T13:47:49.401Z,7.40
2019-01-12T13:50:22.112Z,7.50
2019-01-12T13:52:51.122Z,7.40
2019-01-12T13:55:22.419Z,7.50
2019-01-12T13:57:51.527Z,7.50
2019-01-12T14:00:33.426Z,7.50
2019-01-12T14:03:02.488Z,7.50
2019-01-12T14:05:31.438Z,7.50
2019-01-12T14:08:00.569Z,7.50
2019-01-12T14:10:29.519Z,7.50
2019-01-12T14:12:58.392Z,7.50
2019-01-12T14:15:27.455Z,7.50
2019-01-12T14:17:56.395Z,7.50
2019-01-12T14:20:27.670Z,7.50
2019-01-12T14:22:56.718Z,7.50
2019-01-12T14:25:27.057Z,7.60
2019-01-12T14:27:55.971Z,7.60
2019-01-12T14:30:24.841Z,7.60
2019-01-12T14:32:53.632Z,7.70
2019-01-12T14:35:22.543Z,7.70
2019-01-12T14:37:51.322Z,7.70
2019-01-12T14:40:20.733Z,7.70
2019-01-12T14:42:49.505Z,7.70
2019-01-12T14:45:30.030Z,7.80
2019-01-12T14:47:58.870Z,7.80
2019-01-12T14:50:27.794Z,7.80
2019-01-12T14:52:56.546Z,7.80
2019-01-12T14:55:25.497Z,7.80
2019-01-12T14:58:01.585Z,7.80
2019-01-12T15:00:26.537Z,7.80
2019-01-12T15:02:59.108Z,7.80
2019-01-12T15:05:28.494Z,7.80
2019-01-12T15:07:57.341Z,7.80
2019-01-12T15:10:26.415Z,7.80
2019-01-12T15:12:55.166Z,7.80
2019-01-12T15:15:24.112Z,7.80
2019-01-12T15:17:52.920Z,7.80
2019-01-12T15:20:24.335Z,7.80
2019-01-12T15:22:53.166Z,7.80
2019-01-12T15:25:21.997Z,7.80
2019-01-12T15:27:52.119Z,7.90
2019-01-12T15:30:23.544Z,7.90
2019-01-12T15:32:53.547Z,7.90
2019-01-12T15:35:24.963Z,7.90
2019-01-12T15:37:53.766Z,7.90
2019-01-12T15:40:22.876Z,7.90
2019-01-12T15:42:51.765Z,7.90
2019-01-12T15:45:23.229Z,7.90
2019-01-12T15:47:52.099Z,7.90
2019-01-12T15:50:22.878Z,7.90
2019-01-12T15:52:52.069Z,7.90
2019-01-12T15:55:21.214Z,7.90
2019-01-12T15:57:50.442Z,7.90
2019-01-12T16:00:22.067Z,7.90
2019-01-12T16:02:50.938Z,8.00
2019-01-12T16:05:19.881Z,8.00
2019-01-12T16:07:51.653Z,8.00
2019-01-12T16:10:20.819Z,8.00
2019-01-12T16:12:49.927Z,8.00
2019-01-12T16:15:20.947Z,8.00
2019-01-12T16:17:50.118Z,8.00
2019-01-12T16:20:21.527Z,8.00
2019-01-12T16:22:50.416Z,8.00
2019-01-12T16:25:19.207Z,8.00
2019-01-12T16:27:48.117Z,7.90
2019-01-12T16:30:19.028Z,8.00
2019-01-12T16:32:48.133Z,7.90
2019-01-12T16:35:17.386Z,7.90
2019-01-12T16:37:46.269Z,8.00
2019-01-12T16:40:17.454Z,7.90
2019-01-12T16:42:46.346Z,7.90
2019-01-12T16:45:15.597Z,7.90
2019-01-12T16:47:44.527Z,7.90
2019-01-12T16:50:13.765Z,7.80
2019-01-12T16:52:42.715Z,7.80
2019-01-12T16:55:16.204Z,7.80
2019-01-12T16:57:45.005Z,7.90
2019-01-12T17:00:22.270Z,7.90
2019-01-12T17:02:51.242Z,7.90
2019-01-12T17:05:20.098Z,7.90
2019-01-12T17:07:49.031Z,7.90
2019-01-12T17:10:20.005Z,7.80
2019-01-12T17:12:48.952Z,7.70
2019-01-12T17:15:19.504Z,7.70
2019-01-12T17:17:48.267Z,7.60
2019-01-12T17:20:22.663Z,7.50
2019-01-12T17:22:53.119Z,7.50
2019-01-12T17:25:21.979Z,7.50
2019-01-12T17:27:54.241Z,7.60
2019-01-12T17:30:24.636Z,7.60
2019-01-12T17:32:53.454Z,7.60
2019-01-12T17:35:22.269Z,7.70
2019-01-12T17:37:51.102Z,7.70
2019-01-12T17:40:20.062Z,7.70
2019-01-12T17:42:49.016Z,7.70
2019-01-12T17:45:19.761Z,7.70
2019-01-12T17:47:48.728Z,7.70
2019-01-12T17:50:20.090Z,7.80
2019-01-12T17:52:49.095Z,7.80
2019-01-12T17:55:19.822Z,7.80
2019-01-12T17:57:48.682Z,7.80
2019-01-12T18:00:22.417Z,7.80
2019-01-12T18:02:51.146Z,7.80
2019-01-12T18:05:19.938Z,7.80
2019-01-12T18:07:48.723Z,7.80
2019-01-12T18:10:17.483Z,7.80
2019-01-12T18:12:46.270Z,7.70
2019-01-12T18:15:15.651Z,7.80
2019-01-12T18:17:44.448Z,7.80
2019-01-12T18:20:15.596Z,7.80
2019-01-12T18:22:44.570Z,7.70
2019-01-12T18:25:13.647Z,7.70
2019-01-12T18:27:42.353Z,7.70
2019-01-12T18:30:14.299Z,7.70
2019-01-12T18:32:43.954Z,7.70
2019-01-12T18:35:12.853Z,7.70
2019-01-12T18:37:41.980Z,7.70
2019-01-12T18:40:16.549Z,7.70
2019-01-12T18:42:45.436Z,7.70
2019-01-12T18:45:16.853Z,7.70
2019-01-12T18:47:45.951Z,7.60
2019-01-12T18:50:20.263Z,7.60
2019-01-12T18:52:49.134Z,7.50
2019-01-12T18:55:18.032Z,7.50
2019-01-12T18:57:46.783Z,7.50
2019-01-12T19:00:20.702Z,7.50
2019-01-12T19:02:50.171Z,7.40
2019-01-12T19:05:19.232Z,7.40
2019-01-12T19:07:48.272Z,7.40
2019-01-12T19:10:17.174Z,7.40
2019-01-12T19:12:45.987Z,7.40
2019-01-12T19:15:20.319Z,7.40
2019-01-12T19:17:49.239Z,7.50
2019-01-12T19:20:18.406Z,7.50
2019-01-12T19:22:47.429Z,7.60
2019-01-12T19:25:16.388Z,7.60
2019-01-12T19:27:45.266Z,7.70
2019-01-12T19:30:16.718Z,7.70
2019-01-12T19:32:45.646Z,7.60
2019-01-12T19:35:14.614Z,7.50
2019-01-12T19:37:43.517Z,7.50
2019-01-12T19:40:14.687Z,7.60
2019-01-12T19:42:43.589Z,7.60
2019-01-12T19:45:14.031Z,7.70
2019-01-12T19:47:42.883Z,7.70
2019-01-12T19:50:22.454Z,7.70
2019-01-12T19:52:51.336Z,7.70
2019-01-12T19:55:20.035Z,7.70
2019-01-12T19:57:48.800Z,7.60
2019-01-12T20:00:20.066Z,7.60
2019-01-12T20:02:48.996Z,7.60
2019-01-12T20:05:17.858Z,7.70
2019-01-12T20:07:46.777Z,7.70
2019-01-12T20:10:17.375Z,7.70
2019-01-12T20:12:46.204Z,7.80
2019-01-12T20:15:17.867Z,7.80
2019-01-12T20:17:46.726Z,7.80
2019-01-12T20:20:16.083Z,7.80
2019-01-12T20:22:44.917Z,7.80
2019-01-12T20:25:16.967Z,7.80
2019-01-12T20:27:45.644Z,7.80
2019-01-12T20:30:20.562Z,7.70
2019-01-12T20:33:07.130Z,7.70
2019-01-12T20:35:50.781Z,7.70
2019-01-12T20:38:22.559Z,7.70
2019-01-12T20:41:09.223Z,7.70
2019-01-12T20:43:49.621Z,7.70
2019-01-12T20:46:30.484Z,7.70
2019-01-12T20:49:02.325Z,7.60
2019-01-12T20:52:04.723Z,7.60
2019-01-12T20:55:00.693Z,7.60
2019-01-12T20:57:51.894Z,7.70
2019-01-12T21:00:35.959Z,7.70
2019-01-12T21:03:28.432Z,7.80
2019-01-12T21:06:02.861Z,7.70
2019-01-12T21:08:34.632Z,7.60
2019-01-12T21:11:09.217Z,7.50
2019-01-12T21:13:55.897Z,7.40
2019-01-12T21:16:29.912Z,7.20
2019-01-12T21:18:58.730Z,7.20
2019-01-12T21:21:27.972Z,7.20
2019-01-12T21:23:56.839Z,7.20
2019-01-12T21:26:25.662Z,7.30
2019-01-12T21:28:54.445Z,7.40
2019-01-12T21:31:23.354Z,7.50
2019-01-12T21:33:52.283Z,7.50
2019-01-12T21:36:21.020Z,7.60
2019-01-12T21:38:49.980Z,7.60
2019-01-12T21:41:18.852Z,7.60
2019-01-12T21:43:47.790Z,7.60
2019-01-12T21:46:16.925Z,7.60
2019-01-12T21:48:45.887Z,7.70
2019-01-12T21:51:16.825Z,7.70
2019-01-12T21:53:45.674Z,7.80
2019-01-12T21:56:14.450Z,7.70
2019-01-12T21:58:43.197Z,7.80
2019-01-12T22:01:11.976Z,7.80
2019-01-12T22:03:40.914Z,7.80
2019-01-12T22:06:09.725Z,7.90
2019-01-12T22:08:38.629Z,7.90
2019-01-12T22:11:07.367Z,7.90
2019-01-12T22:13:36.235Z,7.90
2019-01-12T22:16:05.083Z,7.90
2019-01-12T22:18:33.855Z,8.00
2019-01-12T22:21:03.011Z,8.00
2019-01-12T22:23:34.714Z,8.00
2019-01-12T22:26:03.558Z,8.00
2019-01-12T22:28:32.266Z,8.00
2019-01-12T22:31:01.089Z,8.00
2019-01-12T22:33:29.936Z,8.00
2019-01-12T22:35:58.729Z,8.00
2019-01-12T22:38:27.489Z,8.00
2019-01-12T22:40:56.221Z,8.10
2019-01-12T22:43:24.936Z,8.10
2019-01-12T22:45:53.745Z,8.10
2019-01-12T22:48:22.532Z,8.10
2019-01-12T22:50:51.267Z,8.10
2019-01-12T22:53:20.133Z,8.10
2019-01-12T22:55:48.992Z,8.10
2019-01-12T22:58:17.692Z,8.10
2019-01-12T23:00:58.353Z,8.20
2019-01-12T23:03:27.148Z,8.20
2019-01-12T23:05:55.948Z,8.20
2019-01-12T23:08:24.854Z,8.20
2019-01-12T23:10:53.657Z,8.20
2019-01-12T23:13:22.420Z,8.20
2019-01-12T23:15:51.290Z,8.20
2019-01-12T23:18:19.999Z,8.30
2019-01-12T23:20:48.758Z,8.30
2019-01-12T23:23:17.550Z,8.20
2019-01-12T23:25:47.284Z,8.20
2019-01-12T23:28:16.153Z,8.20
2019-01-12T23:30:44.919Z,8.20
2019-01-12T23:33:13.788Z,8.20
2019-01-12T23:35:42.542Z,8.20
2019-01-12T23:38:11.419Z,8.20
2019-01-12T23:40:40.144Z,8.20
2019-01-12T23:43:09.020Z,8.30
2019-01-12T23:45:37.777Z,8.30
2019-01-12T23:48:07.152Z,8.30
2019-01-12T23:50:35.910Z,8.30
2019-01-12T23:53:04.782Z,8.30
2019-01-12T23:55:33.549Z,8.30
2019-01-12T23:58:02.269Z,8.20
